createdAt,value
2023-02-22T00:00:52.792Z,9.74
2023-02-22T00:02:10.965Z,9.71
2023-02-22T00:03:16.956Z,9.76
2023-02-22T00:04:21.284Z,9.82
2023-02-22T00:05:24.947Z,9.85
2023-02-22T00:06:27.600Z,9.91
2023-02-22T00:07:29.950Z,9.94
2023-02-22T00:08:35.729Z,9.96
2023-02-22T00:09:37.946Z,9.95
2023-02-22T00:10:40.347Z,10.05
2023-02-22T00:11:46.572Z,10.06
2023-02-22T00:12:49.684Z,9.97
2023-02-22T00:13:52.204Z,9.96
2023-02-22T00:14:54.396Z,9.89
2023-02-22T00:15:57.927Z,9.89
2023-02-22T00:17:00.178Z,9.85
2023-02-22T00:18:04.403Z,9.79
2023-02-22T00:19:07.137Z,9.83
2023-02-22T00:20:14.061Z,9.89
2023-02-22T00:21:17.921Z,9.93
2023-02-22T00:22:20.582Z,9.89
2023-02-22T00:23:23.321Z,9.89
2023-02-22T00:24:25.941Z,9.97
2023-02-22T00:25:28.159Z,10.01
2023-02-22T00:26:33.866Z,9.97
2023-02-22T00:27:37.045Z,9.97
2023-02-22T00:28:39.538Z,10.02
2023-02-22T00:29:45.606Z,10.02
2023-02-22T00:30:48.306Z,9.94
2023-02-22T00:31:50.904Z,9.92
2023-02-22T00:32:55.945Z,9.94
2023-02-22T00:33:58.196Z,10.03
2023-02-22T00:35:00.614Z,10.04
2023-02-22T00:36:02.829Z,9.93
2023-02-22T00:37:05.056Z,9.85
2023-02-22T00:38:07.762Z,9.84
2023-02-22T00:39:09.985Z,9.81
2023-02-22T00:40:19.122Z,9.82
2023-02-22T00:41:21.615Z,9.81
2023-02-22T00:42:25.759Z,9.80
2023-02-22T00:43:27.962Z,9.83
2023-02-22T00:44:30.322Z,9.87
2023-02-22T00:45:34.392Z,9.88
2023-02-22T00:46:36.690Z,9.79
2023-02-22T00:47:38.873Z,9.84
2023-02-22T00:48:41.052Z,9.83
2023-02-22T00:49:43.657Z,9.75
2023-02-22T00:50:48.483Z,9.75
2023-02-22T00:51:50.961Z,9.75
2023-02-22T00:52:53.675Z,9.71
2023-02-22T00:53:55.837Z,9.75
2023-02-22T00:54:58.594Z,9.73
2023-02-22T00:56:00.766Z,9.72
2023-02-22T00:57:03.744Z,9.72
2023-02-22T00:58:06.742Z,9.75
2023-02-22T00:59:10.482Z,9.79
2023-02-22T01:00:29.142Z,9.86
2023-02-22T01:01:31.527Z,9.93
2023-02-22T01:02:33.845Z,9.95
2023-02-22T01:03:39.583Z,10.03
2023-02-22T01:04:42.053Z,9.96
2023-02-22T01:05:45.066Z,9.98
2023-02-22T01:06:47.363Z,9.95
2023-02-22T01:07:50.241Z,9.90
2023-02-22T01:08:52.451Z,9.90
2023-02-22T01:09:54.835Z,9.91
2023-02-22T01:10:58.042Z,9.92
2023-02-22T01:12:02.651Z,9.92
2023-02-22T01:13:08.851Z,9.86
2023-02-22T01:14:11.676Z,9.83
2023-02-22T01:15:15.119Z,9.78
2023-02-22T01:16:17.319Z,9.79
2023-02-22T01:17:19.702Z,9.79
2023-02-22T01:18:21.922Z,9.81
2023-02-22T01:19:24.382Z,9.83
2023-02-22T01:20:28.077Z,9.86
2023-02-22T01:21:30.344Z,9.85
2023-02-22T01:22:32.536Z,9.81
2023-02-22T01:23:34.760Z,9.82
2023-02-22T01:24:37.118Z,9.83
2023-02-22T01:25:39.487Z,9.82
2023-02-22T01:26:43.034Z,9.79
2023-02-22T01:27:45.434Z,9.75
2023-02-22T01:28:47.630Z,9.76
2023-02-22T01:29:50.240Z,9.75
2023-02-22T01:30:52.695Z,9.71
2023-02-22T01:31:56.264Z,9.66
2023-02-22T01:32:59.076Z,9.59
2023-02-22T01:34:01.269Z,9.51
2023-02-22T01:35:06.167Z,9.51
2023-02-22T01:36:11.681Z,9.46
2023-02-22T01:37:13.905Z,9.39
2023-02-22T01:38:16.882Z,9.41
2023-02-22T01:39:19.302Z,9.36
2023-02-22T01:40:31.646Z,9.40
2023-02-22T01:41:34.017Z,9.42
2023-02-22T01:42:37.122Z,9.50
2023-02-22T01:43:39.500Z,9.46
2023-02-22T01:44:41.860Z,9.47
2023-02-22T01:45:49.603Z,9.46
2023-02-22T01:46:51.826Z,9.53
2023-02-22T01:47:56.436Z,9.55
2023-02-22T01:49:06.245Z,9.54
2023-02-22T01:50:10.654Z,9.58
2023-02-22T01:51:17.475Z,9.57
2023-02-22T01:52:21.398Z,9.53
2023-02-22T01:53:30.324Z,9.49
2023-02-22T01:54:39.290Z,9.48
2023-02-22T01:55:42.283Z,9.48
2023-02-22T01:56:58.238Z,9.45
2023-02-22T01:58:01.257Z,9.47
2023-02-22T01:59:09.829Z,9.47
2023-02-22T02:00:20.231Z,9.45
2023-02-22T02:01:24.489Z,9.45
2023-02-22T02:02:27.299Z,9.42
2023-02-22T02:03:33.202Z,9.42
2023-02-22T02:04:37.609Z,9.45
2023-02-22T02:05:39.867Z,9.40
2023-02-22T02:06:45.892Z,9.41
2023-02-22T02:07:49.428Z,9.35
2023-02-22T02:09:02.711Z,9.34
2023-02-22T02:10:14.543Z,9.39
2023-02-22T02:11:20.849Z,9.55
2023-02-22T02:12:23.616Z,9.61
2023-02-22T02:13:27.565Z,9.59
2023-02-22T02:14:32.195Z,9.54
2023-02-22T02:15:34.366Z,9.46
2023-02-22T02:16:47.643Z,9.45
2023-02-22T02:17:52.650Z,9.45
2023-02-22T02:18:54.914Z,9.44
2023-02-22T02:20:11.818Z,9.48
2023-02-22T02:21:33.852Z,9.54
2023-02-22T02:22:47.148Z,9.47
2023-02-22T02:24:09.284Z,9.41
2023-02-22T02:25:58.014Z,9.37
2023-02-22T02:27:10.362Z,9.31
2023-02-22T02:28:46.712Z,9.34
2023-02-22T02:30:09.876Z,9.38
2023-02-22T02:31:40.052Z,9.33
2023-02-22T02:32:52.766Z,9.36
2023-02-22T02:34:06.140Z,9.34
2023-02-22T02:35:35.170Z,9.35
2023-02-22T02:36:52.636Z,9.31
2023-02-22T02:38:02.892Z,9.35
2023-02-22T02:39:25.741Z,9.36
2023-02-22T02:41:05.790Z,9.47
2023-02-22T02:42:12.643Z,9.48
2023-02-22T02:43:54.965Z,9.44
2023-02-22T02:45:08.713Z,9.36
2023-02-22T02:46:24.867Z,9.35
2023-02-22T02:47:30.035Z,9.33
2023-02-22T02:48:34.836Z,9.37
2023-02-22T02:49:51.421Z,9.37
2023-02-22T02:50:58.390Z,9.34
2023-02-22T02:52:05.760Z,9.23
2023-02-22T02:53:09.969Z,9.16
2023-02-22T02:54:14.451Z,9.11
2023-02-22T02:55:18.151Z,9.13
2023-02-22T02:56:20.559Z,9.11
2023-02-22T02:57:24.730Z,9.12
2023-02-22T02:58:27.096Z,9.08
2023-02-22T02:59:33.409Z,9.10
2023-02-22T03:00:41.121Z,9.04
2023-02-22T03:02:15.641Z,8.99
2023-02-22T03:03:48.995Z,8.90
2023-02-22T03:05:08.247Z,8.99
2023-02-22T03:06:48.017Z,9.08
2023-02-22T03:07:56.418Z,9.03
2023-02-22T03:09:20.066Z,9.10
2023-02-22T03:10:45.217Z,9.10
2023-02-22T03:12:06.084Z,9.06
2023-02-22T03:13:28.682Z,9.14
2023-02-22T03:14:41.350Z,9.17
2023-02-22T03:16:16.805Z,9.21
2023-02-22T03:17:54.858Z,9.33
2023-02-22T03:19:23.529Z,9.45
2023-02-22T03:20:32.711Z,9.50
2023-02-22T03:21:46.963Z,9.42
2023-02-22T03:23:04.918Z,9.54
2023-02-22T03:24:19.954Z,9.46
2023-02-22T03:25:34.153Z,9.37
2023-02-22T03:27:09.694Z,9.06
2023-02-22T03:28:17.324Z,8.92
2023-02-22T03:29:26.401Z,8.80
2023-02-22T03:30:51.759Z,8.74
2023-02-22T03:32:01.442Z,8.72
2023-02-22T03:33:23.416Z,8.71
2023-02-22T03:34:29.603Z,8.68
2023-02-22T03:35:35.078Z,8.61
2023-02-22T03:36:44.637Z,8.65
2023-02-22T03:37:50.219Z,8.66
2023-02-22T03:38:55.668Z,8.69
2023-02-22T03:40:01.195Z,8.75
2023-02-22T03:41:10.064Z,8.73
2023-02-22T03:42:18.692Z,8.85
2023-02-22T03:43:29.881Z,8.85
2023-02-22T03:44:40.242Z,8.89
2023-02-22T03:45:44.987Z,8.91
2023-02-22T03:46:50.518Z,8.95
2023-02-22T03:48:03.620Z,8.98
2023-02-22T03:49:20.307Z,9.08
2023-02-22T03:50:29.932Z,9.02
2023-02-22T03:51:32.997Z,9.01
2023-02-22T03:52:37.801Z,9.00
2023-02-22T03:53:45.887Z,9.02
2023-02-22T03:54:48.298Z,8.97
2023-02-22T03:55:55.741Z,8.91
2023-02-22T03:57:05.847Z,8.81
2023-02-22T03:58:14.803Z,8.72
2023-02-22T03:59:17.819Z,8.76
2023-02-22T04:00:24.839Z,8.77
2023-02-22T04:01:27.010Z,8.81
2023-02-22T04:02:29.242Z,8.76
2023-02-22T04:03:31.631Z,8.73
2023-02-22T04:04:34.099Z,8.71
2023-02-22T04:05:36.549Z,8.68
2023-02-22T04:06:38.977Z,8.70
2023-02-22T04:07:42.293Z,8.67
2023-02-22T04:08:45.747Z,8.72
2023-02-22T04:09:48.154Z,8.73
2023-02-22T04:10:51.434Z,8.77
2023-02-22T04:11:57.298Z,8.80
2023-02-22T04:12:59.775Z,8.86
2023-02-22T04:14:02.005Z,8.85
2023-02-22T04:15:08.463Z,8.66
2023-02-22T04:16:11.989Z,8.62
2023-02-22T04:17:14.885Z,8.64
2023-02-22T04:18:17.271Z,8.62
2023-02-22T04:19:21.746Z,8.58
2023-02-22T04:20:28.143Z,8.54
2023-02-22T04:21:33.238Z,8.51
2023-02-22T04:22:36.320Z,8.47
2023-02-22T04:23:39.352Z,8.47
2023-02-22T04:24:41.883Z,8.49
2023-02-22T04:25:44.388Z,8.44
2023-02-22T04:26:47.213Z,8.40
2023-02-22T04:27:50.287Z,8.36
2023-02-22T04:28:56.593Z,8.36
2023-02-22T04:30:00.617Z,8.40
2023-02-22T04:31:04.495Z,8.48
2023-02-22T04:32:08.533Z,8.46
2023-02-22T04:33:10.927Z,8.41
2023-02-22T04:34:13.135Z,8.46
2023-02-22T04:35:17.095Z,8.52
2023-02-22T04:36:19.686Z,8.46
2023-02-22T04:37:22.290Z,8.50
2023-02-22T04:38:26.116Z,8.41
2023-02-22T04:39:30.331Z,8.42
2023-02-22T04:40:33.399Z,8.43
2023-02-22T04:41:35.885Z,8.39
2023-02-22T04:42:39.066Z,8.42
2023-02-22T04:43:41.650Z,8.52
2023-02-22T04:44:52.245Z,8.52
2023-02-22T04:45:55.233Z,8.50
2023-02-22T04:46:58.970Z,8.45
2023-02-22T04:48:01.447Z,8.40
2023-02-22T04:49:03.709Z,8.41
2023-02-22T04:50:11.922Z,8.40
2023-02-22T04:51:15.158Z,8.40
2023-02-22T04:52:28.759Z,8.31
2023-02-22T04:53:31.097Z,8.31
2023-02-22T04:54:33.579Z,8.37
2023-02-22T04:55:38.384Z,8.33
2023-02-22T04:56:46.227Z,8.33
2023-02-22T04:57:48.396Z,8.29
2023-02-22T04:58:50.566Z,8.30
2023-02-22T04:59:53.086Z,8.20
2023-02-22T05:00:55.503Z,8.25
2023-02-22T05:01:58.443Z,8.30
2023-02-22T05:03:01.018Z,8.27
2023-02-22T05:04:05.424Z,8.28
2023-02-22T05:05:07.632Z,8.36
2023-02-22T05:06:09.936Z,8.40
2023-02-22T05:07:12.592Z,8.46
2023-02-22T05:08:14.733Z,8.41
2023-02-22T05:09:16.886Z,8.46
2023-02-22T05:10:19.849Z,8.50
2023-02-22T05:11:22.497Z,8.56
2023-02-22T05:12:27.656Z,8.48
2023-02-22T05:13:30.021Z,8.43
2023-02-22T05:14:32.534Z,8.39
2023-02-22T05:15:34.926Z,8.37
2023-02-22T05:16:37.617Z,8.41
2023-02-22T05:17:39.968Z,8.36
2023-02-22T05:18:42.419Z,8.28
2023-02-22T05:19:44.577Z,8.22
2023-02-22T05:20:46.928Z,8.26
2023-02-22T05:21:49.084Z,8.26
2023-02-22T05:22:52.198Z,8.27
2023-02-22T05:23:54.372Z,8.30
2023-02-22T05:24:56.970Z,8.24
2023-02-22T05:25:59.748Z,8.26
2023-02-22T05:27:01.952Z,8.29
2023-02-22T05:28:11.142Z,8.29
2023-02-22T05:29:14.145Z,8.26
2023-02-22T05:30:16.476Z,8.29
2023-02-22T05:31:19.220Z,8.25
2023-02-22T05:32:21.828Z,8.34
2023-02-22T05:33:24.273Z,8.37
2023-02-22T05:34:26.459Z,8.36
2023-02-22T05:35:29.424Z,8.30
2023-02-22T05:36:31.579Z,8.28
2023-02-22T05:37:34.044Z,8.30
2023-02-22T05:38:43.479Z,8.30
2023-02-22T05:39:46.907Z,8.32
2023-02-22T05:40:49.446Z,8.29
2023-02-22T05:41:51.905Z,8.27
2023-02-22T05:42:54.708Z,8.27
2023-02-22T05:43:57.106Z,8.30
2023-02-22T05:45:00.267Z,8.37
2023-02-22T05:46:02.604Z,8.37
2023-02-22T05:47:04.774Z,8.42
2023-02-22T05:48:07.696Z,8.46
2023-02-22T05:49:09.880Z,8.45
2023-02-22T05:50:12.922Z,8.38
2023-02-22T05:51:15.259Z,8.34
2023-02-22T05:52:17.816Z,8.33
2023-02-22T05:53:20.406Z,8.42
2023-02-22T05:54:22.783Z,8.44
2023-02-22T05:55:25.147Z,8.46
2023-02-22T05:56:30.513Z,8.35
2023-02-22T05:57:32.678Z,8.33
2023-02-22T05:58:35.060Z,8.32
2023-02-22T05:59:37.487Z,8.41
2023-02-22T06:00:39.642Z,8.31
2023-02-22T06:01:42.042Z,8.25
2023-02-22T06:02:44.246Z,8.23
2023-02-22T06:03:48.658Z,8.28
2023-02-22T06:04:51.057Z,8.21
2023-02-22T06:05:53.201Z,8.15
2023-02-22T06:06:55.567Z,8.22
2023-02-22T06:07:58.872Z,8.37
2023-02-22T06:09:01.439Z,8.38
2023-02-22T06:10:03.925Z,8.40
2023-02-22T06:11:06.079Z,8.35
2023-02-22T06:12:09.452Z,8.38
2023-02-22T06:13:11.635Z,8.35
2023-02-22T06:14:14.250Z,8.31
2023-02-22T06:15:18.544Z,8.32
2023-02-22T06:16:22.538Z,8.27
2023-02-22T06:17:25.078Z,8.23
2023-02-22T06:18:27.321Z,8.17
2023-02-22T06:19:29.702Z,8.30
2023-02-22T06:20:33.355Z,8.31
2023-02-22T06:21:35.527Z,8.38
2023-02-22T06:22:37.955Z,8.26
2023-02-22T06:23:40.358Z,8.16
2023-02-22T06:24:42.861Z,8.09
2023-02-22T06:25:45.116Z,8.08
2023-02-22T06:26:54.164Z,8.03
2023-02-22T06:27:56.343Z,8.11
2023-02-22T06:28:58.697Z,8.03
2023-02-22T06:30:01.807Z,8.07
2023-02-22T06:31:04.043Z,8.08
2023-02-22T06:32:06.291Z,8.13
2023-02-22T06:33:09.338Z,8.22
2023-02-22T06:34:11.667Z,8.24
2023-02-22T06:35:15.764Z,8.21
2023-02-22T06:36:17.999Z,8.16
2023-02-22T06:37:20.365Z,8.11
2023-02-22T06:38:24.574Z,8.06
2023-02-22T06:39:26.779Z,8.11
2023-02-22T06:40:29.805Z,8.20
2023-02-22T06:41:32.051Z,8.22
2023-02-22T06:42:34.425Z,8.14
2023-02-22T06:43:36.638Z,8.16
2023-02-22T06:44:38.808Z,8.10
2023-02-22T06:45:41.220Z,8.06
2023-02-22T06:46:53.592Z,8.10
2023-02-22T06:47:55.749Z,8.10
2023-02-22T06:48:59.500Z,8.12
2023-02-22T06:50:01.959Z,8.25
2023-02-22T06:51:04.584Z,8.25
2023-02-22T06:52:08.472Z,8.26
2023-02-22T06:53:10.665Z,8.22
2023-02-22T06:54:13.322Z,8.15
2023-02-22T06:55:26.591Z,8.02
2023-02-22T06:56:28.874Z,8.10
2023-02-22T06:57:31.337Z,8.09
2023-02-22T06:58:33.502Z,8.09
2023-02-22T06:59:35.964Z,8.12
2023-02-22T07:00:38.559Z,8.07
2023-02-22T07:01:41.913Z,8.11
2023-02-22T07:02:44.435Z,8.10
2023-02-22T07:03:49.420Z,8.12
2023-02-22T07:04:51.600Z,8.05
2023-02-22T07:05:55.542Z,8.08
2023-02-22T07:06:57.745Z,8.16
2023-02-22T07:08:05.855Z,8.23
2023-02-22T07:09:08.215Z,8.28
2023-02-22T07:10:22.382Z,8.39
2023-02-22T07:11:24.784Z,8.41
2023-02-22T07:12:27.015Z,8.50
2023-02-22T07:13:29.722Z,8.47
2023-02-22T07:14:32.115Z,8.38
2023-02-22T07:15:35.264Z,8.36
2023-02-22T07:16:37.956Z,8.37
2023-02-22T07:17:41.270Z,8.26
2023-02-22T07:18:43.440Z,8.28
2023-02-22T07:19:45.583Z,8.20
2023-02-22T07:20:48.190Z,8.23
2023-02-22T07:21:50.879Z,8.24
2023-02-22T07:22:53.651Z,8.26
2023-02-22T07:23:58.931Z,8.28
2023-02-22T07:25:01.122Z,8.30
2023-02-22T07:26:05.630Z,8.35
2023-02-22T07:27:07.780Z,8.40
2023-02-22T07:28:11.096Z,8.38
2023-02-22T07:29:13.444Z,8.40
2023-02-22T07:30:25.229Z,8.48
2023-02-22T07:31:29.639Z,8.50
2023-02-22T07:32:32.245Z,8.47
2023-02-22T07:33:35.500Z,8.47
2023-02-22T07:34:37.870Z,8.34
2023-02-22T07:35:48.578Z,8.44
2023-02-22T07:36:50.948Z,8.54
2023-02-22T07:37:55.875Z,8.60
2023-02-22T07:38:58.301Z,8.62
2023-02-22T07:40:00.424Z,8.64
2023-02-22T07:41:02.858Z,8.72
2023-02-22T07:42:05.203Z,8.71
2023-02-22T07:43:22.955Z,8.78
2023-02-22T07:44:27.610Z,8.67
2023-02-22T07:45:31.473Z,8.62
2023-02-22T07:46:34.166Z,8.58
2023-02-22T07:47:36.278Z,8.63
2023-02-22T07:48:39.542Z,8.61
2023-02-22T07:49:41.867Z,8.62
2023-02-22T07:50:44.327Z,8.68
2023-02-22T07:51:46.944Z,8.68
2023-02-22T07:52:51.308Z,8.82
2023-02-22T07:53:53.520Z,8.58
2023-02-22T07:54:55.866Z,8.64
2023-02-22T07:55:58.968Z,8.63
2023-02-22T07:57:01.358Z,8.61
2023-02-22T07:58:07.213Z,8.60
2023-02-22T07:59:09.390Z,8.69
2023-02-22T08:00:14.559Z,8.68
2023-02-22T08:01:17.123Z,8.65
2023-02-22T08:02:20.458Z,8.71
2023-02-22T08:03:24.967Z,8.65
2023-02-22T08:04:27.127Z,8.70
2023-02-22T08:05:31.458Z,8.75
2023-02-22T08:06:33.691Z,8.68
2023-02-22T08:07:38.203Z,8.71
2023-02-22T08:08:40.577Z,8.69
2023-02-22T08:09:42.807Z,8.72
2023-02-22T08:10:45.425Z,8.63
2023-02-22T08:11:47.781Z,8.67
2023-02-22T08:12:51.506Z,8.77
2023-02-22T08:13:53.779Z,8.80
2023-02-22T08:14:56.198Z,8.65
2023-02-22T08:15:58.631Z,8.68
2023-02-22T08:17:01.242Z,8.73
2023-02-22T08:18:12.144Z,8.76
2023-02-22T08:19:14.134Z,8.77
2023-02-22T08:20:16.819Z,8.86
2023-02-22T08:21:19.390Z,8.90
2023-02-22T08:22:22.416Z,8.85
2023-02-22T08:23:26.962Z,8.84
2023-02-22T08:24:29.390Z,8.86
2023-02-22T08:25:32.440Z,8.91
2023-02-22T08:26:34.846Z,8.98
2023-02-22T08:27:37.341Z,9.07
2023-02-22T08:28:39.840Z,9.19
2023-02-22T08:29:42.210Z,9.11
2023-02-22T08:30:44.434Z,9.09
2023-02-22T08:31:54.096Z,9.08
2023-02-22T08:32:57.026Z,8.97
2023-02-22T08:34:01.038Z,9.00
2023-02-22T08:35:03.887Z,8.94
2023-02-22T08:36:06.590Z,8.93
2023-02-22T08:37:08.983Z,9.09
2023-02-22T08:38:27.266Z,9.07
2023-02-22T08:39:29.573Z,9.21
2023-02-22T08:40:34.468Z,9.16
2023-02-22T08:41:36.796Z,9.06
2023-02-22T08:42:39.342Z,9.16
2023-02-22T08:43:41.516Z,9.24
2023-02-22T08:44:43.657Z,9.29
2023-02-22T08:45:46.941Z,9.25
2023-02-22T08:46:49.175Z,9.12
2023-02-22T08:47:52.300Z,9.25
2023-02-22T08:48:54.822Z,9.13
2023-02-22T08:49:57.067Z,9.05
2023-02-22T08:50:59.341Z,9.13
2023-02-22T08:52:01.715Z,9.32
2023-02-22T08:53:05.773Z,9.51
2023-02-22T08:54:07.942Z,9.54
2023-02-22T08:55:10.242Z,9.67
2023-02-22T08:56:12.563Z,9.49
2023-02-22T08:57:15.139Z,9.35
2023-02-22T08:58:17.534Z,9.22
2023-02-22T08:59:19.736Z,9.26
2023-02-22T09:00:25.304Z,9.34
2023-02-22T09:01:33.368Z,9.43
2023-02-22T09:02:36.161Z,9.22
2023-02-22T09:03:38.696Z,8.96
2023-02-22T09:04:40.882Z,9.04
2023-02-22T09:05:43.814Z,9.12
2023-02-22T09:06:51.711Z,9.22
2023-02-22T09:07:54.633Z,9.18
2023-02-22T09:08:56.865Z,9.18
2023-02-22T09:09:59.078Z,9.26
2023-02-22T09:11:01.423Z,9.54
2023-02-22T09:12:04.316Z,9.69
2023-02-22T09:13:07.110Z,9.72
2023-02-22T09:14:09.303Z,9.75
2023-02-22T09:15:15.219Z,9.61
2023-02-22T09:16:17.569Z,9.58
2023-02-22T09:17:19.982Z,9.38
2023-02-22T09:18:22.463Z,9.22
2023-02-22T09:19:24.669Z,9.07
2023-02-22T09:20:27.907Z,9.18
2023-02-22T09:21:30.087Z,9.34
2023-02-22T09:22:32.498Z,9.52
2023-02-22T09:23:35.010Z,9.50
2023-02-22T09:24:37.269Z,9.55
2023-02-22T09:25:40.845Z,9.37
2023-02-22T09:26:47.284Z,9.56
2023-02-22T09:27:53.464Z,9.66
2023-02-22T09:28:55.912Z,9.73
2023-02-22T09:29:58.634Z,9.67
2023-02-22T09:31:01.387Z,9.65
2023-02-22T09:32:04.431Z,9.64
2023-02-22T09:33:12.964Z,9.65
2023-02-22T09:34:16.437Z,9.83
2023-02-22T09:35:18.771Z,9.76
2023-02-22T09:36:21.845Z,9.22
2023-02-22T09:37:24.020Z,9.26
2023-02-22T09:38:26.266Z,9.25
2023-02-22T09:39:29.392Z,9.22
2023-02-22T09:40:33.510Z,9.25
2023-02-22T09:41:47.875Z,9.26
2023-02-22T09:43:08.138Z,9.29
2023-02-22T09:44:18.611Z,9.31
2023-02-22T09:45:27.748Z,9.36
2023-02-22T09:46:34.750Z,9.43
2023-02-22T09:47:41.882Z,9.36
2023-02-22T09:49:16.324Z,9.41
2023-02-22T09:50:43.065Z,9.46
2023-02-22T09:52:46.883Z,9.61
2023-02-22T09:53:52.270Z,9.72
2023-02-22T09:55:28.815Z,9.79
2023-02-22T09:56:33.897Z,9.75
2023-02-22T09:57:41.644Z,9.57
2023-02-22T09:58:52.209Z,9.54
2023-02-22T10:00:13.622Z,9.80
2023-02-22T10:01:33.644Z,10.07
2023-02-22T10:02:41.407Z,9.92
2023-02-22T10:04:04.306Z,9.79
2023-02-22T10:05:20.097Z,9.57
2023-02-22T10:06:24.763Z,9.60
2023-02-22T10:07:39.011Z,9.46
2023-02-22T10:08:43.165Z,9.49
2023-02-22T10:09:48.387Z,9.43
2023-02-22T10:11:05.995Z,9.41
2023-02-22T10:12:23.157Z,9.43
2023-02-22T10:13:55.101Z,9.79
2023-02-22T10:15:28.485Z,9.82
2023-02-22T10:16:54.376Z,10.02
2023-02-22T10:18:03.483Z,9.79
2023-02-22T10:19:32.012Z,9.75
2023-02-22T10:21:13.182Z,9.70
2023-02-22T10:22:20.974Z,9.75
2023-02-22T10:23:49.870Z,9.88
2023-02-22T10:25:01.149Z,9.67
2023-02-22T10:26:33.329Z,9.89
2023-02-22T10:27:50.611Z,9.87
2023-02-22T10:29:01.397Z,9.73
2023-02-22T10:30:33.701Z,9.96
2023-02-22T10:31:46.451Z,9.98
2023-02-22T10:33:09.401Z,9.97
2023-02-22T10:34:20.615Z,10.00
2023-02-22T10:35:26.530Z,10.15
2023-02-22T10:36:29.197Z,10.19
2023-02-22T10:37:34.065Z,10.03
2023-02-22T10:38:36.521Z,9.86
2023-02-22T10:39:40.035Z,9.84
2023-02-22T10:40:50.255Z,9.88
2023-02-22T10:41:57.133Z,9.77
2023-02-22T10:43:08.366Z,10.03
2023-02-22T10:44:10.785Z,10.14
2023-02-22T10:45:45.201Z,10.33
2023-02-22T10:46:48.662Z,10.23
2023-02-22T10:47:54.428Z,10.37
2023-02-22T10:49:03.026Z,10.44
2023-02-22T10:50:07.097Z,10.58
2023-02-22T10:51:10.813Z,10.79
2023-02-22T10:52:26.427Z,10.94
2023-02-22T10:53:30.271Z,11.06
2023-02-22T10:54:38.905Z,10.80
2023-02-22T10:56:06.139Z,10.24
2023-02-22T10:57:10.478Z,9.88
2023-02-22T10:58:12.762Z,9.82
2023-02-22T10:59:29.935Z,9.82
2023-02-22T11:00:37.276Z,9.80
2023-02-22T11:01:40.847Z,9.73
2023-02-22T11:02:56.094Z,9.82
2023-02-22T11:04:07.232Z,9.99
2023-02-22T11:05:36.793Z,10.04
2023-02-22T11:06:42.525Z,10.23
2023-02-22T11:07:44.916Z,10.46
2023-02-22T11:08:51.342Z,10.61
2023-02-22T11:09:56.897Z,10.86
2023-02-22T11:11:20.256Z,10.97
2023-02-22T11:12:47.742Z,10.95
2023-02-22T11:13:57.736Z,10.62
2023-02-22T11:15:32.562Z,10.46
2023-02-22T11:16:43.453Z,10.60
2023-02-22T11:17:46.745Z,10.38
2023-02-22T11:18:49.415Z,10.20
2023-02-22T11:19:52.511Z,10.06
2023-02-22T11:21:04.606Z,10.08
2023-02-22T11:22:21.438Z,10.15
2023-02-22T11:23:23.784Z,10.20
2023-02-22T11:24:32.391Z,10.00
2023-02-22T11:25:40.178Z,9.90
2023-02-22T11:27:09.008Z,10.04
2023-02-22T11:28:18.078Z,10.10
2023-02-22T11:29:34.366Z,10.25
2023-02-22T11:30:36.918Z,10.61
2023-02-22T11:31:44.503Z,10.75
2023-02-22T11:32:50.777Z,10.94
2023-02-22T11:35:20.831Z,11.05
2023-02-22T11:36:43.283Z,10.88
2023-02-22T11:37:45.446Z,10.91
2023-02-22T11:38:56.139Z,10.63
2023-02-22T11:40:22.337Z,10.44
2023-02-22T11:41:30.091Z,10.78
2023-02-22T11:42:32.457Z,10.97
2023-02-22T11:43:35.044Z,10.89
2023-02-22T11:44:37.207Z,11.04
2023-02-22T11:45:44.192Z,10.84
2023-02-22T11:46:55.938Z,10.79
2023-02-22T11:48:01.151Z,10.69
2023-02-22T11:49:10.109Z,10.65
2023-02-22T11:50:38.135Z,10.43
2023-02-22T11:51:59.372Z,10.48
2023-02-22T11:53:13.681Z,10.48
2023-02-22T11:54:31.164Z,10.61
2023-02-22T11:56:13.912Z,10.92
2023-02-22T11:57:33.702Z,11.16
2023-02-22T11:59:08.173Z,11.33
2023-02-22T12:00:41.798Z,11.02
2023-02-22T12:02:22.362Z,10.75
2023-02-22T12:03:55.134Z,10.66
2023-02-22T12:05:22.276Z,10.87
2023-02-22T12:06:40.535Z,10.83
2023-02-22T12:07:57.215Z,10.72
2023-02-22T12:09:23.632Z,10.70
2023-02-22T12:10:28.610Z,10.70
2023-02-22T12:11:40.237Z,10.90
2023-02-22T12:13:18.177Z,10.76
2023-02-22T12:14:25.522Z,10.94
2023-02-22T12:15:34.419Z,10.81
2023-02-22T12:16:45.133Z,10.57
2023-02-22T12:18:02.066Z,10.78
2023-02-22T12:19:32.761Z,10.97
2023-02-22T12:20:43.594Z,11.01
2023-02-22T12:21:53.146Z,11.03
2023-02-22T12:23:07.221Z,11.22
2023-02-22T12:24:30.683Z,11.36
2023-02-22T12:25:37.072Z,11.33
2023-02-22T12:26:42.262Z,11.30
2023-02-22T12:27:51.917Z,11.15
2023-02-22T12:29:01.325Z,11.28
2023-02-22T12:30:24.753Z,10.88
2023-02-22T12:31:36.184Z,10.47
2023-02-22T12:32:49.768Z,10.40
2023-02-22T12:34:03.717Z,10.61
2023-02-22T12:35:19.215Z,10.36
2023-02-22T12:36:28.691Z,10.60
2023-02-22T12:37:44.975Z,10.70
2023-02-22T12:38:57.363Z,10.56
2023-02-22T12:40:08.664Z,10.39
2023-02-22T12:41:18.413Z,10.42
2023-02-22T12:42:47.504Z,10.39
2023-02-22T12:44:02.395Z,10.45
2023-02-22T12:45:11.717Z,10.38
2023-02-22T12:46:20.393Z,10.32
2023-02-22T12:47:34.690Z,10.22
2023-02-22T12:48:51.941Z,10.43
2023-02-22T12:50:12.934Z,10.60
2023-02-22T12:51:51.385Z,10.75
2023-02-22T12:53:03.118Z,10.88
2023-02-22T12:54:14.244Z,11.05
2023-02-22T12:55:56.599Z,10.99
2023-02-22T12:57:23.842Z,10.66
2023-02-22T12:59:22.995Z,10.61
2023-02-22T13:00:52.758Z,10.83
2023-02-22T13:02:20.782Z,11.05
2023-02-22T13:03:37.446Z,11.25
2023-02-22T13:04:39.651Z,11.24
2023-02-22T13:05:43.242Z,11.39
2023-02-22T13:07:31.878Z,11.38
2023-02-22T13:08:34.313Z,11.44
2023-02-22T13:09:36.444Z,11.51
2023-02-22T13:11:01.170Z,11.36
2023-02-22T13:12:24.725Z,11.10
2023-02-22T13:13:33.660Z,11.02
2023-02-22T13:15:14.623Z,11.08
2023-02-22T13:16:31.468Z,11.11
2023-02-22T13:17:33.677Z,11.13
2023-02-22T13:18:49.386Z,11.02
2023-02-22T13:19:57.784Z,11.20
2023-02-22T13:21:12.549Z,11.28
2023-02-22T13:22:44.863Z,11.50
2023-02-22T13:24:03.620Z,11.15
2023-02-22T13:25:43.018Z,11.41
2023-02-22T13:26:57.325Z,11.34
2023-02-22T13:28:16.302Z,11.13
2023-02-22T13:29:34.547Z,11.36
2023-02-22T13:31:02.538Z,11.20
2023-02-22T13:32:34.476Z,10.80
2023-02-22T13:34:03.074Z,10.74
2023-02-22T13:35:20.762Z,10.76
2023-02-22T13:36:38.614Z,11.08
2023-02-22T13:37:49.727Z,11.38
2023-02-22T13:38:51.842Z,11.60
2023-02-22T13:39:54.736Z,11.64
2023-02-22T13:41:22.772Z,11.69
2023-02-22T13:42:27.499Z,11.64
2023-02-22T13:44:04.220Z,11.16
2023-02-22T13:45:18.383Z,11.01
2023-02-22T13:46:51.624Z,11.23
2023-02-22T13:48:16.090Z,11.51
2023-02-22T13:49:29.725Z,11.61
2023-02-22T13:50:50.041Z,11.61
2023-02-22T13:51:56.914Z,11.38
2023-02-22T13:53:03.444Z,11.32
2023-02-22T13:54:19.407Z,11.07
2023-02-22T13:55:32.698Z,11.00
2023-02-22T13:56:35.528Z,11.07
2023-02-22T13:57:50.166Z,11.38
2023-02-22T13:58:58.943Z,11.63
2023-02-22T14:00:17.828Z,11.76
2023-02-22T14:01:53.553Z,11.69
2023-02-22T14:03:34.335Z,11.50
2023-02-22T14:04:40.591Z,11.21
2023-02-22T14:05:42.834Z,11.19
2023-02-22T14:06:45.892Z,11.47
2023-02-22T14:07:49.581Z,11.49
2023-02-22T14:08:51.755Z,11.54
2023-02-22T14:09:56.668Z,11.54
2023-02-22T14:11:00.985Z,11.45
2023-02-22T14:12:04.225Z,11.22
2023-02-22T14:13:07.650Z,11.27
2023-02-22T14:14:11.350Z,11.39
2023-02-22T14:15:29.788Z,11.50
2023-02-22T14:16:34.185Z,11.68
2023-02-22T14:17:42.764Z,11.26
2023-02-22T14:18:50.072Z,11.16
2023-02-22T14:20:19.690Z,11.35
2023-02-22T14:21:22.758Z,11.32
2023-02-22T14:22:28.949Z,11.34
2023-02-22T14:23:35.601Z,11.28
2023-02-22T14:24:48.579Z,11.03
2023-02-22T14:25:51.497Z,11.01
2023-02-22T14:27:03.999Z,11.18
2023-02-22T14:28:09.386Z,11.16
2023-02-22T14:29:17.901Z,11.04
2023-02-22T14:30:46.360Z,11.14
2023-02-22T14:31:50.735Z,11.26
2023-02-22T14:32:53.483Z,11.31
2023-02-22T14:34:02.145Z,11.27
2023-02-22T14:35:17.206Z,11.41
2023-02-22T14:36:44.302Z,11.14
2023-02-22T14:37:52.189Z,10.99
2023-02-22T14:39:01.894Z,10.98
2023-02-22T14:40:26.620Z,10.94
2023-02-22T14:41:30.613Z,11.23
2023-02-22T14:42:48.209Z,11.24
2023-02-22T14:43:51.404Z,11.32
2023-02-22T14:45:15.036Z,11.32
2023-02-22T14:46:22.985Z,11.13
2023-02-22T14:48:04.211Z,11.25
2023-02-22T14:49:11.665Z,11.13
2023-02-22T14:50:23.379Z,11.15
2023-02-22T14:51:44.356Z,11.23
2023-02-22T14:52:48.698Z,11.21
2023-02-22T14:53:55.155Z,11.27
2023-02-22T14:55:11.577Z,11.22
2023-02-22T14:56:25.372Z,11.03
2023-02-22T14:57:43.629Z,11.06
2023-02-22T14:59:16.772Z,10.80
2023-02-22T15:00:38.061Z,11.00
2023-02-22T15:01:52.739Z,11.03
2023-02-22T15:03:01.784Z,10.69
2023-02-22T15:04:25.672Z,10.46
2023-02-22T15:05:34.711Z,10.17
2023-02-22T15:06:37.106Z,10.13